sensor_id;sensor_type;location;lat;lon;timestamp;P1;durP1;ratioP1;P2;durP2;ratioP2
5951;SDS011;3001;42.622;23.194;2022-12-29T00:01:22;79.83;;;38.63;;
5951;SDS011;3001;42.622;23.194;2022-12-29T00:03:49;75.77;;;36.50;;
5951;SDS011;3001;42.622;23.194;2022-12-29T00:06:16;107.80;;;47.67;;
5951;SDS011;3001;42.622;23.194;2022-12-29T00:08:43;119.97;;;56.63;;
5951;SDS011;3001;42.622;23.194;2022-12-29T00:11:10;127.30;;;58.03;;
5951;SDS011;3001;42.622;23.194;2022-12-29T00:13:40;98.13;;;45.07;;
5951;SDS011;3001;42.622;23.194;2022-12-29T00:16:24;85.30;;;38.53;;
5951;SDS011;3001;42.622;23.194;2022-12-29T00:18:51;47.20;;;25.53;;
5951;SDS011;3001;42.622;23.194;2022-12-29T00:21:19;54.70;;;26.10;;
5951;SDS011;3001;42.622;23.194;2022-12-29T00:24:04;47.77;;;24.67;;
5951;SDS011;3001;42.622;23.194;2022-12-29T00:26:49;50.90;;;25.93;;
5951;SDS011;3001;42.622;23.194;2022-12-29T00:29:38;74.77;;;35.93;;
5951;SDS011;3001;42.622;23.194;2022-12-29T00:32:21;118.73;;;51.10;;
5951;SDS011;3001;42.622;23.194;2022-12-29T00:35:06;123.03;;;53.33;;
5951;SDS011;3001;42.622;23.194;2022-12-29T00:37:34;118.80;;;51.97;;
5951;SDS011;3001;42.622;23.194;2022-12-29T00:40:19;89.07;;;42.17;;
5951;SDS011;3001;42.622;23.194;2022-12-29T00:43:09;79.63;;;40.00;;
5951;SDS011;3001;42.622;23.194;2022-12-29T00:46:03;89.73;;;44.23;;
5951;SDS011;3001;42.622;23.194;2022-12-29T00:48:30;120.73;;;56.10;;
5951;SDS011;3001;42.622;23.194;2022-12-29T00:51:14;130.73;;;60.50;;
5951;SDS011;3001;42.622;23.194;2022-12-29T00:53:40;118.67;;;59.00;;
5951;SDS011;3001;42.622;23.194;2022-12-29T00:56:07;123.13;;;57.40;;
5951;SDS011;3001;42.622;23.194;2022-12-29T00:58:34;107.53;;;55.47;;
5951;SDS011;3001;42.622;23.194;2022-12-29T01:01:01;102.80;;;52.57;;
5951;SDS011;3001;42.622;23.194;2022-12-29T01:03:30;109.60;;;53.70;;
5951;SDS011;3001;42.622;23.194;2022-12-29T01:05:56;109.77;;;55.70;;
5951;SDS011;3001;42.622;23.194;2022-12-29T01:08:26;108.77;;;54.33;;
5951;SDS011;3001;42.622;23.194;2022-12-29T01:10:59;103.53;;;53.27;;
5951;SDS011;3001;42.622;23.194;2022-12-29T01:13:25;106.97;;;53.80;;
5951;SDS011;3001;42.622;23.194;2022-12-29T01:15:52;117.27;;;54.70;;
5951;SDS011;3001;42.622;23.194;2022-12-29T01:18:20;100.07;;;49.40;;
5951;SDS011;3001;42.622;23.194;2022-12-29T01:20:49;86.17;;;44.70;;
5951;SDS011;3001;42.622;23.194;2022-12-29T01:23:16;85.57;;;43.77;;
5951;SDS011;3001;42.622;23.194;2022-12-29T01:25:43;77.03;;;40.70;;
5951;SDS011;3001;42.622;23.194;2022-12-29T01:28:09;94.03;;;46.73;;
5951;SDS011;3001;42.622;23.194;2022-12-29T01:30:36;90.67;;;44.30;;
5951;SDS011;3001;42.622;23.194;2022-12-29T01:33:03;80.57;;;44.10;;
5951;SDS011;3001;42.622;23.194;2022-12-29T01:35:29;84.17;;;43.73;;
5951;SDS011;3001;42.622;23.194;2022-12-29T01:37:58;84.93;;;43.43;;
5951;SDS011;3001;42.622;23.194;2022-12-29T01:40:25;70.60;;;39.60;;
5951;SDS011;3001;42.622;23.194;2022-12-29T01:42:51;81.83;;;40.53;;
5951;SDS011;3001;42.622;23.194;2022-12-29T01:45:18;74.50;;;40.07;;
5951;SDS011;3001;42.622;23.194;2022-12-29T01:47:46;71.53;;;43.70;;
5951;SDS011;3001;42.622;23.194;2022-12-29T01:50:16;75.90;;;42.47;;
5951;SDS011;3001;42.622;23.194;2022-12-29T01:52:47;71.37;;;37.00;;
5951;SDS011;3001;42.622;23.194;2022-12-29T01:55:22;63.93;;;38.30;;
5951;SDS011;3001;42.622;23.194;2022-12-29T01:57:50;62.90;;;36.93;;
5951;SDS011;3001;42.622;23.194;2022-12-29T02:00:20;66.73;;;36.77;;
5951;SDS011;3001;42.622;23.194;2022-12-29T02:02:48;68.23;;;38.00;;
5951;SDS011;3001;42.622;23.194;2022-12-29T02:05:19;64.63;;;37.07;;
5951;SDS011;3001;42.622;23.194;2022-12-29T02:07:51;72.77;;;37.67;;
5951;SDS011;3001;42.622;23.194;2022-12-29T02:10:19;60.83;;;35.37;;
5951;SDS011;3001;42.622;23.194;2022-12-29T02:12:49;64.80;;;36.13;;
5951;SDS011;3001;42.622;23.194;2022-12-29T02:15:17;67.00;;;35.83;;
5951;SDS011;3001;42.622;23.194;2022-12-29T02:17:53;55.93;;;33.57;;
5951;SDS011;3001;42.622;23.194;2022-12-29T02:20:43;66.07;;;35.90;;
5951;SDS011;3001;42.622;23.194;2022-12-29T02:23:42;30.83;;;18.13;;
5951;SDS011;3001;42.622;23.194;2022-12-29T02:26:51;35.30;;;16.30;;
5951;SDS011;3001;42.622;23.194;2022-12-29T02:32:35;21.77;;;13.77;;
5951;SDS011;3001;42.622;23.194;2022-12-29T02:35:10;24.03;;;14.93;;
5951;SDS011;3001;42.622;23.194;2022-12-29T02:37:48;23.90;;;15.00;;
5951;SDS011;3001;42.622;23.194;2022-12-29T02:40:22;29.77;;;16.37;;
5951;SDS011;3001;42.622;23.194;2022-12-29T02:42:56;22.20;;;15.37;;
5951;SDS011;3001;42.622;23.194;2022-12-29T02:45:31;25.43;;;15.67;;
5951;SDS011;3001;42.622;23.194;2022-12-29T02:48:07;29.93;;;17.23;;
5951;SDS011;3001;42.622;23.194;2022-12-29T02:50:37;24.70;;;15.97;;
5951;SDS011;3001;42.622;23.194;2022-12-29T02:53:07;29.77;;;17.67;;
5951;SDS011;3001;42.622;23.194;2022-12-29T02:55:37;58.40;;;31.60;;
5951;SDS011;3001;42.622;23.194;2022-12-29T02:58:13;76.00;;;41.43;;
5951;SDS011;3001;42.622;23.194;2022-12-29T03:00:46;79.03;;;42.90;;
5951;SDS011;3001;42.622;23.194;2022-12-29T03:03:25;74.07;;;39.67;;
5951;SDS011;3001;42.622;23.194;2022-12-29T03:06:06;68.17;;;35.13;;
5951;SDS011;3001;42.622;23.194;2022-12-29T03:08:44;52.63;;;31.47;;
5951;SDS011;3001;42.622;23.194;2022-12-29T03:11:16;56.57;;;31.30;;
5951;SDS011;3001;42.622;23.194;2022-12-29T03:14:02;48.10;;;30.43;;
5951;SDS011;3001;42.622;23.194;2022-12-29T03:16:52;52.17;;;31.27;;
5951;SDS011;3001;42.622;23.194;2022-12-29T03:19:25;53.43;;;31.03;;
5951;SDS011;3001;42.622;23.194;2022-12-29T03:21:56;58.30;;;32.70;;
5951;SDS011;3001;42.622;23.194;2022-12-29T03:24:45;52.03;;;30.97;;
5951;SDS011;3001;42.622;23.194;2022-12-29T03:27:15;52.27;;;29.87;;
5951;SDS011;3001;42.622;23.194;2022-12-29T03:29:46;48.30;;;29.87;;
5951;SDS011;3001;42.622;23.194;2022-12-29T03:32:20;47.03;;;28.93;;
5951;SDS011;3001;42.622;23.194;2022-12-29T03:34:51;48.60;;;29.07;;
5951;SDS011;3001;42.622;23.194;2022-12-29T03:37:20;52.90;;;31.37;;
5951;SDS011;3001;42.622;23.194;2022-12-29T03:39:50;48.70;;;30.03;;
5951;SDS011;3001;42.622;23.194;2022-12-29T03:42:17;54.47;;;31.73;;
5951;SDS011;3001;42.622;23.194;2022-12-29T03:44:47;48.77;;;30.47;;
5951;SDS011;3001;42.622;23.194;2022-12-29T03:47:14;51.30;;;30.63;;
5951;SDS011;3001;42.622;23.194;2022-12-29T03:49:41;49.80;;;29.27;;
5951;SDS011;3001;42.622;23.194;2022-12-29T03:52:09;53.30;;;28.37;;
5951;SDS011;3001;42.622;23.194;2022-12-29T03:54:36;49.50;;;29.13;;
5951;SDS011;3001;42.622;23.194;2022-12-29T03:57:02;53.17;;;30.37;;
5951;SDS011;3001;42.622;23.194;2022-12-29T03:59:29;56.60;;;30.90;;
5951;SDS011;3001;42.622;23.194;2022-12-29T04:01:56;57.93;;;32.90;;
5951;SDS011;3001;42.622;23.194;2022-12-29T04:04:23;53.73;;;29.23;;
5951;SDS011;3001;42.622;23.194;2022-12-29T04:06:50;54.87;;;29.87;;
5951;SDS011;3001;42.622;23.194;2022-12-29T04:09:18;60.50;;;32.80;;
5951;SDS011;3001;42.622;23.194;2022-12-29T04:11:44;59.57;;;33.27;;
5951;SDS011;3001;42.622;23.194;2022-12-29T04:14:11;53.53;;;31.07;;
5951;SDS011;3001;42.622;23.194;2022-12-29T04:16:38;60.63;;;33.00;;
5951;SDS011;3001;42.622;23.194;2022-12-29T04:19:05;58.97;;;33.27;;
5951;SDS011;3001;42.622;23.194;2022-12-29T04:21:32;57.47;;;33.50;;
5951;SDS011;3001;42.622;23.194;2022-12-29T04:23:59;52.83;;;32.03;;
5951;SDS011;3001;42.622;23.194;2022-12-29T04:26:27;52.90;;;31.77;;
5951;SDS011;3001;42.622;23.194;2022-12-29T04:28:54;54.13;;;31.77;;
5951;SDS011;3001;42.622;23.194;2022-12-29T04:31:21;53.00;;;31.00;;
5951;SDS011;3001;42.622;23.194;2022-12-29T04:33:47;54.03;;;30.83;;
5951;SDS011;3001;42.622;23.194;2022-12-29T04:36:14;54.13;;;31.47;;
5951;SDS011;3001;42.622;23.194;2022-12-29T04:38:41;63.53;;;34.50;;
5951;SDS011;3001;42.622;23.194;2022-12-29T04:41:08;61.63;;;33.50;;
5951;SDS011;3001;42.622;23.194;2022-12-29T04:43:36;73.63;;;39.83;;
5951;SDS011;3001;42.622;23.194;2022-12-29T04:46:03;67.10;;;38.17;;
5951;SDS011;3001;42.622;23.194;2022-12-29T04:48:29;68.77;;;38.27;;
5951;SDS011;3001;42.622;23.194;2022-12-29T04:50:56;70.47;;;39.60;;
5951;SDS011;3001;42.622;23.194;2022-12-29T04:53:23;69.13;;;39.37;;
5951;SDS011;3001;42.622;23.194;2022-12-29T04:55:50;76.33;;;43.47;;
5951;SDS011;3001;42.622;23.194;2022-12-29T04:58:18;74.00;;;41.17;;
5951;SDS011;3001;42.622;23.194;2022-12-29T05:00:46;62.07;;;37.40;;
5951;SDS011;3001;42.622;23.194;2022-12-29T05:03:13;70.57;;;40.30;;
5951;SDS011;3001;42.622;23.194;2022-12-29T05:05:40;56.40;;;32.93;;
5951;SDS011;3001;42.622;23.194;2022-12-29T05:08:07;60.83;;;34.77;;
5951;SDS011;3001;42.622;23.194;2022-12-29T05:10:33;61.70;;;34.23;;
5951;SDS011;3001;42.622;23.194;2022-12-29T05:13:00;62.97;;;35.13;;
5951;SDS011;3001;42.622;23.194;2022-12-29T05:15:27;61.03;;;37.90;;
5951;SDS011;3001;42.622;23.194;2022-12-29T05:17:55;68.37;;;37.07;;
5951;SDS011;3001;42.622;23.194;2022-12-29T05:20:22;62.30;;;35.20;;
5951;SDS011;3001;42.622;23.194;2022-12-29T05:22:49;62.10;;;36.90;;
5951;SDS011;3001;42.622;23.194;2022-12-29T05:25:15;65.57;;;36.00;;
5951;SDS011;3001;42.622;23.194;2022-12-29T05:27:42;66.30;;;37.03;;
5951;SDS011;3001;42.622;23.194;2022-12-29T05:30:09;67.90;;;37.53;;
5951;SDS011;3001;42.622;23.194;2022-12-29T05:32:37;63.27;;;37.60;;
5951;SDS011;3001;42.622;23.194;2022-12-29T05:35:05;62.40;;;36.37;;
5951;SDS011;3001;42.622;23.194;2022-12-29T05:37:33;63.23;;;35.20;;
5951;SDS011;3001;42.622;23.194;2022-12-29T05:39:59;63.93;;;36.17;;
5951;SDS011;3001;42.622;23.194;2022-12-29T05:42:26;62.20;;;36.43;;
5951;SDS011;3001;42.622;23.194;2022-12-29T05:44:53;61.47;;;35.77;;
5951;SDS011;3001;42.622;23.194;2022-12-29T05:47:20;64.17;;;36.33;;
5951;SDS011;3001;42.622;23.194;2022-12-29T05:49:46;64.23;;;36.33;;
5951;SDS011;3001;42.622;23.194;2022-12-29T05:52:15;63.37;;;37.13;;
5951;SDS011;3001;42.622;23.194;2022-12-29T05:54:41;66.90;;;36.37;;
5951;SDS011;3001;42.622;23.194;2022-12-29T05:57:08;64.97;;;36.40;;
5951;SDS011;3001;42.622;23.194;2022-12-29T05:59:35;61.97;;;35.77;;
5951;SDS011;3001;42.622;23.194;2022-12-29T06:02:01;57.50;;;32.80;;
5951;SDS011;3001;42.622;23.194;2022-12-29T06:04:28;64.33;;;33.63;;
5951;SDS011;3001;42.622;23.194;2022-12-29T06:06:55;57.13;;;33.77;;
5951;SDS011;3001;42.622;23.194;2022-12-29T06:09:23;62.23;;;32.63;;
5951;SDS011;3001;42.622;23.194;2022-12-29T06:11:50;58.40;;;33.00;;
5951;SDS011;3001;42.622;23.194;2022-12-29T06:14:16;68.70;;;35.73;;
5951;SDS011;3001;42.622;23.194;2022-12-29T06:16:43;78.03;;;38.97;;
5951;SDS011;3001;42.622;23.194;2022-12-29T06:19:10;80.50;;;41.43;;
5951;SDS011;3001;42.622;23.194;2022-12-29T06:21:37;86.77;;;42.40;;
5951;SDS011;3001;42.622;23.194;2022-12-29T06:24:04;84.70;;;42.53;;
5951;SDS011;3001;42.622;23.194;2022-12-29T06:26:32;86.40;;;41.70;;
5951;SDS011;3001;42.622;23.194;2022-12-29T06:28:59;90.63;;;44.40;;
5951;SDS011;3001;42.622;23.194;2022-12-29T06:31:26;82.57;;;42.73;;
5951;SDS011;3001;42.622;23.194;2022-12-29T06:33:53;74.23;;;40.80;;
5951;SDS011;3001;42.622;23.194;2022-12-29T06:36:20;77.53;;;38.73;;
5951;SDS011;3001;42.622;23.194;2022-12-29T06:38:47;76.53;;;40.57;;
5951;SDS011;3001;42.622;23.194;2022-12-29T06:41:13;89.53;;;42.73;;
5951;SDS011;3001;42.622;23.194;2022-12-29T06:43:41;75.17;;;40.27;;
5951;SDS011;3001;42.622;23.194;2022-12-29T06:46:08;70.67;;;39.20;;
5951;SDS011;3001;42.622;23.194;2022-12-29T06:48:35;71.90;;;37.90;;
5951;SDS011;3001;42.622;23.194;2022-12-29T06:51:01;65.10;;;37.80;;
5951;SDS011;3001;42.622;23.194;2022-12-29T06:53:29;77.03;;;40.57;;
5951;SDS011;3001;42.622;23.194;2022-12-29T06:55:55;65.50;;;36.53;;
5951;SDS011;3001;42.622;23.194;2022-12-29T06:58:22;69.83;;;37.37;;
5951;SDS011;3001;42.622;23.194;2022-12-29T07:00:50;71.10;;;38.60;;
5951;SDS011;3001;42.622;23.194;2022-12-29T07:03:17;80.97;;;39.30;;
5951;SDS011;3001;42.622;23.194;2022-12-29T07:05:44;68.53;;;36.93;;
5951;SDS011;3001;42.622;23.194;2022-12-29T07:08:11;115.27;;;50.27;;
5951;SDS011;3001;42.622;23.194;2022-12-29T07:10:37;107.87;;;51.33;;
5951;SDS011;3001;42.622;23.194;2022-12-29T07:13:04;99.43;;;50.70;;
5951;SDS011;3001;42.622;23.194;2022-12-29T07:15:32;108.87;;;51.90;;
5951;SDS011;3001;42.622;23.194;2022-12-29T07:18:00;209.47;;;97.83;;
5951;SDS011;3001;42.622;23.194;2022-12-29T07:20:28;118.73;;;58.50;;
5951;SDS011;3001;42.622;23.194;2022-12-29T07:22:54;97.67;;;50.10;;
5951;SDS011;3001;42.622;23.194;2022-12-29T07:25:21;86.30;;;47.00;;
5951;SDS011;3001;42.622;23.194;2022-12-29T07:27:48;81.63;;;43.90;;
5951;SDS011;3001;42.622;23.194;2022-12-29T07:30:15;80.33;;;41.43;;
5951;SDS011;3001;42.622;23.194;2022-12-29T07:32:42;71.60;;;39.33;;
5951;SDS011;3001;42.622;23.194;2022-12-29T07:35:11;49.47;;;27.53;;
5951;SDS011;3001;42.622;23.194;2022-12-29T07:37:37;41.00;;;21.50;;
5951;SDS011;3001;42.622;23.194;2022-12-29T07:40:04;29.33;;;18.77;;
5951;SDS011;3001;42.622;23.194;2022-12-29T07:42:32;32.67;;;18.93;;
5951;SDS011;3001;42.622;23.194;2022-12-29T07:44:59;24.43;;;16.77;;
5951;SDS011;3001;42.622;23.194;2022-12-29T07:47:25;26.57;;;17.50;;
5951;SDS011;3001;42.622;23.194;2022-12-29T07:49:53;25.57;;;16.27;;
5951;SDS011;3001;42.622;23.194;2022-12-29T07:52:21;27.30;;;16.73;;
5951;SDS011;3001;42.622;23.194;2022-12-29T07:54:47;24.30;;;17.53;;
5951;SDS011;3001;42.622;23.194;2022-12-29T07:57:14;33.00;;;19.67;;
5951;SDS011;3001;42.622;23.194;2022-12-29T07:59:41;27.17;;;18.07;;
5951;SDS011;3001;42.622;23.194;2022-12-29T08:02:09;39.10;;;22.00;;
5951;SDS011;3001;42.622;23.194;2022-12-29T08:04:36;31.43;;;19.30;;
5951;SDS011;3001;42.622;23.194;2022-12-29T08:07:03;33.97;;;20.93;;
5951;SDS011;3001;42.622;23.194;2022-12-29T08:09:31;42.50;;;24.53;;
5951;SDS011;3001;42.622;23.194;2022-12-29T08:11:58;46.93;;;24.93;;
5951;SDS011;3001;42.622;23.194;2022-12-29T08:14:24;33.37;;;22.20;;
5951;SDS011;3001;42.622;23.194;2022-12-29T08:16:51;38.33;;;21.57;;
5951;SDS011;3001;42.622;23.194;2022-12-29T08:19:18;30.50;;;21.07;;
5951;SDS011;3001;42.622;23.194;2022-12-29T08:21:45;49.10;;;29.57;;
5951;SDS011;3001;42.622;23.194;2022-12-29T08:24:11;48.20;;;27.67;;
5951;SDS011;3001;42.622;23.194;2022-12-29T08:26:39;40.10;;;24.97;;
5951;SDS011;3001;42.622;23.194;2022-12-29T08:29:06;48.37;;;27.27;;
5951;SDS011;3001;42.622;23.194;2022-12-29T08:31:33;47.33;;;27.30;;
5951;SDS011;3001;42.622;23.194;2022-12-29T08:33:59;43.40;;;26.57;;
5951;SDS011;3001;42.622;23.194;2022-12-29T08:36:28;47.07;;;25.93;;
5951;SDS011;3001;42.622;23.194;2022-12-29T08:38:55;46.23;;;26.97;;
5951;SDS011;3001;42.622;23.194;2022-12-29T08:41:21;38.50;;;24.60;;
5951;SDS011;3001;42.622;23.194;2022-12-29T08:43:50;43.83;;;24.17;;
5951;SDS011;3001;42.622;23.194;2022-12-29T08:46:17;49.77;;;30.53;;
5951;SDS011;3001;42.622;23.194;2022-12-29T08:48:44;51.47;;;31.67;;
5951;SDS011;3001;42.622;23.194;2022-12-29T08:51:11;41.93;;;25.93;;
5951;SDS011;3001;42.622;23.194;2022-12-29T08:53:38;45.73;;;27.30;;
5951;SDS011;3001;42.622;23.194;2022-12-29T08:56:05;55.97;;;31.63;;
5951;SDS011;3001;42.622;23.194;2022-12-29T08:58:32;52.33;;;30.70;;
5951;SDS011;3001;42.622;23.194;2022-12-29T09:01:00;51.53;;;30.57;;
5951;SDS011;3001;42.622;23.194;2022-12-29T09:03:27;53.07;;;30.23;;
5951;SDS011;3001;42.622;23.194;2022-12-29T09:05:54;51.50;;;31.83;;
5951;SDS011;3001;42.622;23.194;2022-12-29T09:08:21;49.67;;;29.80;;
5951;SDS011;3001;42.622;23.194;2022-12-29T09:10:48;48.07;;;28.10;;
5951;SDS011;3001;42.622;23.194;2022-12-29T09:13:15;50.07;;;29.67;;
5951;SDS011;3001;42.622;23.194;2022-12-29T09:15:42;47.33;;;27.33;;
5951;SDS011;3001;42.622;23.194;2022-12-29T09:18:11;44.13;;;27.50;;
5951;SDS011;3001;42.622;23.194;2022-12-29T09:20:38;53.80;;;29.77;;
5951;SDS011;3001;42.622;23.194;2022-12-29T09:23:04;43.60;;;27.43;;
5951;SDS011;3001;42.622;23.194;2022-12-29T09:25:32;47.00;;;27.20;;
5951;SDS011;3001;42.622;23.194;2022-12-29T09:27:59;50.67;;;28.63;;
5951;SDS011;3001;42.622;23.194;2022-12-29T09:30:29;51.73;;;30.23;;
5951;SDS011;3001;42.622;23.194;2022-12-29T09:32:55;54.30;;;33.77;;
5951;SDS011;3001;42.622;23.194;2022-12-29T09:35:23;51.53;;;30.80;;
5951;SDS011;3001;42.622;23.194;2022-12-29T09:37:50;45.83;;;26.63;;
5951;SDS011;3001;42.622;23.194;2022-12-29T09:40:22;52.67;;;29.63;;
5951;SDS011;3001;42.622;23.194;2022-12-29T09:43:00;44.87;;;27.73;;
5951;SDS011;3001;42.622;23.194;2022-12-29T09:45:36;46.13;;;24.60;;
5951;SDS011;3001;42.622;23.194;2022-12-29T09:48:11;51.13;;;31.10;;
5951;SDS011;3001;42.622;23.194;2022-12-29T09:50:45;36.47;;;23.53;;
5951;SDS011;3001;42.622;23.194;2022-12-29T09:53:17;36.13;;;20.13;;
5951;SDS011;3001;42.622;23.194;2022-12-29T09:55:50;60.77;;;31.57;;
5951;SDS011;3001;42.622;23.194;2022-12-29T09:58:21;39.27;;;23.93;;
5951;SDS011;3001;42.622;23.194;2022-12-29T10:00:56;43.97;;;26.17;;
5951;SDS011;3001;42.622;23.194;2022-12-29T10:03:32;37.53;;;25.07;;
5951;SDS011;3001;42.622;23.194;2022-12-29T10:06:10;37.83;;;21.90;;
5951;SDS011;3001;42.622;23.194;2022-12-29T10:08:41;33.30;;;18.00;;
5951;SDS011;3001;42.622;23.194;2022-12-29T10:11:14;20.53;;;15.93;;
5951;SDS011;3001;42.622;23.194;2022-12-29T10:13:55;24.43;;;16.47;;
5951;SDS011;3001;42.622;23.194;2022-12-29T10:16:36;42.67;;;23.60;;
5951;SDS011;3001;42.622;23.194;2022-12-29T10:19:19;44.20;;;23.77;;
5951;SDS011;3001;42.622;23.194;2022-12-29T10:22:01;46.43;;;26.70;;
5951;SDS011;3001;42.622;23.194;2022-12-29T10:24:37;28.80;;;18.20;;
5951;SDS011;3001;42.622;23.194;2022-12-29T10:27:07;18.30;;;15.27;;
5951;SDS011;3001;42.622;23.194;2022-12-29T10:29:37;13.97;;;11.43;;
5951;SDS011;3001;42.622;23.194;2022-12-29T10:32:10;20.57;;;14.53;;
5951;SDS011;3001;42.622;23.194;2022-12-29T10:34:47;12.83;;;10.30;;
5951;SDS011;3001;42.622;23.194;2022-12-29T10:37:21;12.83;;;10.33;;
5951;SDS011;3001;42.622;23.194;2022-12-29T10:39:55;21.37;;;15.07;;
5951;SDS011;3001;42.622;23.194;2022-12-29T10:42:25;11.97;;;10.70;;
5951;SDS011;3001;42.622;23.194;2022-12-29T10:44:53;34.50;;;19.93;;
5951;SDS011;3001;42.622;23.194;2022-12-29T10:47:21;30.40;;;19.17;;
5951;SDS011;3001;42.622;23.194;2022-12-29T10:49:51;17.33;;;13.53;;
5951;SDS011;3001;42.622;23.194;2022-12-29T10:52:20;19.03;;;15.23;;
5951;SDS011;3001;42.622;23.194;2022-12-29T10:54:49;20.83;;;14.47;;
5951;SDS011;3001;42.622;23.194;2022-12-29T10:57:23;19.00;;;12.43;;
5951;SDS011;3001;42.622;23.194;2022-12-29T10:59:53;14.27;;;11.97;;
5951;SDS011;3001;42.622;23.194;2022-12-29T11:02:43;11.53;;;10.33;;
5951;SDS011;3001;42.622;23.194;2022-12-29T11:05:23;25.10;;;16.57;;
5951;SDS011;3001;42.622;23.194;2022-12-29T11:07:57;15.80;;;13.80;;
5951;SDS011;3001;42.622;23.194;2022-12-29T11:10:30;18.17;;;14.23;;
5951;SDS011;3001;42.622;23.194;2022-12-29T11:13:02;19.63;;;14.77;;
5951;SDS011;3001;42.622;23.194;2022-12-29T11:15:38;29.40;;;18.17;;
5951;SDS011;3001;42.622;23.194;2022-12-29T11:18:17;29.03;;;20.00;;
5951;SDS011;3001;42.622;23.194;2022-12-29T11:20:46;26.27;;;16.30;;
5951;SDS011;3001;42.622;23.194;2022-12-29T11:26:07;12.57;;;11.27;;
5951;SDS011;3001;42.622;23.194;2022-12-29T11:28:40;10.43;;;9.43;;
5951;SDS011;3001;42.622;23.194;2022-12-29T11:31:08;16.40;;;12.87;;
5951;SDS011;3001;42.622;23.194;2022-12-29T11:33:36;11.37;;;9.63;;
5951;SDS011;3001;42.622;23.194;2022-12-29T11:36:05;12.07;;;10.87;;
5951;SDS011;3001;42.622;23.194;2022-12-29T11:38:36;8.90;;;8.10;;
5951;SDS011;3001;42.622;23.194;2022-12-29T11:41:05;15.17;;;12.60;;
5951;SDS011;3001;42.622;23.194;2022-12-29T11:43:36;10.50;;;9.37;;
5951;SDS011;3001;42.622;23.194;2022-12-29T11:46:06;10.87;;;9.77;;
5951;SDS011;3001;42.622;23.194;2022-12-29T11:48:37;16.17;;;12.93;;
5951;SDS011;3001;42.622;23.194;2022-12-29T11:51:05;10.17;;;9.33;;
5951;SDS011;3001;42.622;23.194;2022-12-29T11:53:36;28.27;;;16.50;;
5951;SDS011;3001;42.622;23.194;2022-12-29T11:56:10;12.10;;;10.83;;
5951;SDS011;3001;42.622;23.194;2022-12-29T11:58:40;12.93;;;11.70;;
5951;SDS011;3001;42.622;23.194;2022-12-29T12:01:09;27.27;;;18.00;;
5951;SDS011;3001;42.622;23.194;2022-12-29T12:03:40;24.53;;;19.97;;
5951;SDS011;3001;42.622;23.194;2022-12-29T12:06:14;9.67;;;8.73;;
5951;SDS011;3001;42.622;23.194;2022-12-29T12:08:48;26.37;;;16.50;;
5951;SDS011;3001;42.622;23.194;2022-12-29T12:11:22;17.73;;;10.87;;
5951;SDS011;3001;42.622;23.194;2022-12-29T12:13:58;25.47;;;15.70;;
5951;SDS011;3001;42.622;23.194;2022-12-29T12:16:31;26.70;;;18.97;;
5951;SDS011;3001;42.622;23.194;2022-12-29T12:19:03;9.77;;;8.80;;
5951;SDS011;3001;42.622;23.194;2022-12-29T12:21:40;11.67;;;10.57;;
5951;SDS011;3001;42.622;23.194;2022-12-29T12:24:30;10.60;;;9.50;;
5951;SDS011;3001;42.622;23.194;2022-12-29T12:27:08;9.50;;;8.70;;
5951;SDS011;3001;42.622;23.194;2022-12-29T12:29:41;7.97;;;7.47;;
5951;SDS011;3001;42.622;23.194;2022-12-29T12:32:14;10.30;;;9.30;;
5951;SDS011;3001;42.622;23.194;2022-12-29T12:34:43;9.87;;;8.97;;
5951;SDS011;3001;42.622;23.194;2022-12-29T12:37:26;12.40;;;11.23;;
5951;SDS011;3001;42.622;23.194;2022-12-29T12:40:14;13.63;;;11.90;;
5951;SDS011;3001;42.622;23.194;2022-12-29T12:43:12;15.27;;;12.53;;
5951;SDS011;3001;42.622;23.194;2022-12-29T12:45:52;10.60;;;9.57;;
5951;SDS011;3001;42.622;23.194;2022-12-29T12:48:34;12.03;;;10.77;;
5951;SDS011;3001;42.622;23.194;2022-12-29T12:51:15;15.87;;;13.50;;
5951;SDS011;3001;42.622;23.194;2022-12-29T12:53:53;11.70;;;10.30;;
5951;SDS011;3001;42.622;23.194;2022-12-29T12:56:43;17.57;;;12.07;;
5951;SDS011;3001;42.622;23.194;2022-12-29T12:59:25;19.10;;;14.83;;
5951;SDS011;3001;42.622;23.194;2022-12-29T13:02:06;20.43;;;14.73;;
5951;SDS011;3001;42.622;23.194;2022-12-29T13:04:49;18.13;;;13.53;;
5951;SDS011;3001;42.622;23.194;2022-12-29T13:07:32;14.53;;;10.30;;
5951;SDS011;3001;42.622;23.194;2022-12-29T13:10:19;13.57;;;11.60;;
5951;SDS011;3001;42.622;23.194;2022-12-29T13:13:01;21.17;;;13.63;;
5951;SDS011;3001;42.622;23.194;2022-12-29T13:15:42;24.63;;;17.53;;
5951;SDS011;3001;42.622;23.194;2022-12-29T13:18:16;28.53;;;18.07;;
5951;SDS011;3001;42.622;23.194;2022-12-29T13:20:52;22.53;;;14.23;;
5951;SDS011;3001;42.622;23.194;2022-12-29T13:23:25;28.37;;;15.40;;
5951;SDS011;3001;42.622;23.194;2022-12-29T13:26:02;27.57;;;15.63;;
5951;SDS011;3001;42.622;23.194;2022-12-29T13:28:40;25.33;;;18.03;;
5951;SDS011;3001;42.622;23.194;2022-12-29T13:31:15;15.83;;;11.50;;
5951;SDS011;3001;42.622;23.194;2022-12-29T13:33:50;16.50;;;13.47;;
5951;SDS011;3001;42.622;23.194;2022-12-29T13:36:25;18.93;;;12.97;;
5951;SDS011;3001;42.622;23.194;2022-12-29T13:38:59;24.87;;;15.97;;
5951;SDS011;3001;42.622;23.194;2022-12-29T13:41:32;72.90;;;32.57;;
5951;SDS011;3001;42.622;23.194;2022-12-29T13:44:03;36.73;;;21.63;;
5951;SDS011;3001;42.622;23.194;2022-12-29T13:46:33;33.97;;;22.30;;
5951;SDS011;3001;42.622;23.194;2022-12-29T13:49:04;14.93;;;13.33;;
5951;SDS011;3001;42.622;23.194;2022-12-29T13:51:34;6.20;;;5.80;;
5951;SDS011;3001;42.622;23.194;2022-12-29T13:54:11;11.60;;;9.93;;
5951;SDS011;3001;42.622;23.194;2022-12-29T13:56:49;19.10;;;14.63;;
5951;SDS011;3001;42.622;23.194;2022-12-29T13:59:25;14.50;;;11.47;;
5951;SDS011;3001;42.622;23.194;2022-12-29T14:02:08;28.50;;;17.13;;
5951;SDS011;3001;42.622;23.194;2022-12-29T14:04:54;39.03;;;22.33;;
5951;SDS011;3001;42.622;23.194;2022-12-29T14:07:23;66.10;;;36.77;;
5951;SDS011;3001;42.622;23.194;2022-12-29T14:09:50;47.80;;;27.40;;
5951;SDS011;3001;42.622;23.194;2022-12-29T14:12:35;26.80;;;17.70;;
5951;SDS011;3001;42.622;23.194;2022-12-29T14:15:22;11.57;;;9.80;;
5951;SDS011;3001;42.622;23.194;2022-12-29T14:18:02;14.93;;;11.67;;
5951;SDS011;3001;42.622;23.194;2022-12-29T14:20:38;13.77;;;12.10;;
5951;SDS011;3001;42.622;23.194;2022-12-29T14:23:16;10.63;;;9.63;;
5951;SDS011;3001;42.622;23.194;2022-12-29T14:25:56;11.90;;;10.07;;
5951;SDS011;3001;42.622;23.194;2022-12-29T14:28:35;7.20;;;6.53;;
5951;SDS011;3001;42.622;23.194;2022-12-29T14:31:17;17.43;;;12.33;;
5951;SDS011;3001;42.622;23.194;2022-12-29T14:37:03;8.43;;;7.80;;
5951;SDS011;3001;42.622;23.194;2022-12-29T14:39:35;8.07;;;7.27;;
5951;SDS011;3001;42.622;23.194;2022-12-29T14:42:04;8.20;;;7.50;;
5951;SDS011;3001;42.622;23.194;2022-12-29T14:44:32;5.37;;;5.00;;
5951;SDS011;3001;42.622;23.194;2022-12-29T14:47:03;8.60;;;6.57;;
5951;SDS011;3001;42.622;23.194;2022-12-29T14:49:33;6.33;;;5.83;;
5951;SDS011;3001;42.622;23.194;2022-12-29T14:52:08;10.57;;;8.93;;
5951;SDS011;3001;42.622;23.194;2022-12-29T14:54:45;25.47;;;15.73;;
5951;SDS011;3001;42.622;23.194;2022-12-29T15:00:05;56.40;;;33.40;;
5951;SDS011;3001;42.622;23.194;2022-12-29T15:02:38;52.03;;;30.50;;
5951;SDS011;3001;42.622;23.194;2022-12-29T15:05:20;53.30;;;26.63;;
5951;SDS011;3001;42.622;23.194;2022-12-29T15:07:52;49.23;;;26.67;;
5951;SDS011;3001;42.622;23.194;2022-12-29T15:10:21;42.50;;;23.97;;
5951;SDS011;3001;42.622;23.194;2022-12-29T15:12:52;43.07;;;24.60;;